createdAt,value
2019-01-17T01:00:51.712Z,1.20
2019-01-17T01:05:54.877Z,1.00
2019-01-17T01:10:57.032Z,1.23
2019-01-17T01:16:04.426Z,1.00
2019-01-17T01:21:09.897Z,1.20
2019-01-17T01:26:13.409Z,1.10
2019-01-17T02:34:36.284Z,1.40
2019-01-17T02:39:38.315Z,1.20
2019-01-17T02:44:39.583Z,1.23
2019-01-17T02:49:40.879Z,1.10
2019-01-17T02:54:42.172Z,1.27
2019-01-17T02:59:43.481Z,1.73
2019-01-17T04:01:45.672Z,2.33
2019-01-17T04:06:46.940Z,2.20
2019-01-17T04:11:48.261Z,3.20
2019-01-17T04:16:50.374Z,2.37
2019-01-17T04:21:51.680Z,2.83
2019-01-17T04:26:53.002Z,2.33
2019-01-17T05:35:14.728Z,2.07
2019-01-17T05:40:16.287Z,2.20
2019-01-17T05:45:17.669Z,2.70
2019-01-17T05:50:19.893Z,2.27
2019-01-17T05:55:21.326Z,2.63
2019-01-17T06:00:22.759Z,2.80
2019-01-17T07:02:25.457Z,2.93
2019-01-17T07:07:26.767Z,2.77
2019-01-17T07:12:28.058Z,3.03
2019-01-17T07:17:29.367Z,2.83
2019-01-17T07:22:30.672Z,2.67
2019-01-17T07:27:32.776Z,2.60
2019-01-17T08:35:54.548Z,1.60
2019-01-17T08:40:55.836Z,1.70
2019-01-17T08:45:57.116Z,1.97
2019-01-17T08:50:58.385Z,1.20
2019-01-17T08:56:00.930Z,1.57
2019-01-17T10:04:22.102Z,1.00
2019-01-17T10:09:22.292Z,0.90
2019-01-17T10:14:23.609Z,0.97
2019-01-17T10:19:29.904Z,1.10
2019-01-17T10:24:36.829Z,1.37
2019-01-17T10:29:46.950Z,1.07
2019-01-17T11:31:58.915Z,1.40
2019-01-17T11:43:06.329Z,2.00
2019-01-17T11:54:09.621Z,2.00
2019-01-17T11:59:15.768Z,1.90
2019-01-17T13:01:20.920Z,1.47
2019-01-17T13:06:22.189Z,1.77
2019-01-17T13:11:23.467Z,1.50
2019-01-17T13:16:25.579Z,1.57
2019-01-17T13:21:26.861Z,1.83
2019-01-17T13:26:28.975Z,2.00
2019-01-17T14:34:51.381Z,0.60
2019-01-17T14:39:52.649Z,0.70
2019-01-17T14:44:53.906Z,0.80
2019-01-17T14:49:55.191Z,0.60
2019-01-17T14:54:56.465Z,0.57
2019-01-17T14:59:57.735Z,0.67
2019-01-17T16:01:59.173Z,0.83
2019-01-17T16:07:00.444Z,0.90
2019-01-17T16:12:01.721Z,0.80
2019-01-17T16:17:03.729Z,1.20
2019-01-17T16:22:05.038Z,0.80
2019-01-17T16:27:06.337Z,0.80
2019-01-17T16:32:07.603Z,1.00
2019-01-17T16:37:08.911Z,0.80
2019-01-17T16:42:10.206Z,0.93
2019-01-17T16:47:12.241Z,1.07
2019-01-17T16:52:13.559Z,1.40
2019-01-17T16:57:15.595Z,0.90
2019-01-17T17:02:16.890Z,0.93
2019-01-17T17:07:18.964Z,0.80
2019-01-17T17:12:20.273Z,0.80
2019-01-17T17:17:25.235Z,0.90
2019-01-17T17:22:26.537Z,1.00
2019-01-17T17:27:27.828Z,0.80
2019-01-17T17:32:29.364Z,1.43
2019-01-17T17:37:32.489Z,1.10
2019-01-17T17:42:48.730Z,0.87
2019-01-17T17:47:50.047Z,0.87
2019-01-17T17:52:51.338Z,1.20
2019-01-17T17:57:52.626Z,1.20
2019-01-17T18:02:53.960Z,1.30
2019-01-17T18:07:55.266Z,0.97
2019-01-17T18:13:05.428Z,0.90
2019-01-17T18:18:06.890Z,1.13
2019-01-17T18:23:08.187Z,1.00
2019-01-17T18:28:09.502Z,1.10
2019-01-17T18:33:37.551Z,1.07
2019-01-17T18:38:49.407Z,1.00
2019-01-17T18:43:50.708Z,1.00
2019-01-17T18:48:52.034Z,1.03
2019-01-17T18:53:53.347Z,1.17
2019-01-17T18:58:54.793Z,1.10
2019-01-17T19:03:56.155Z,0.87
2019-01-17T19:08:57.488Z,0.90
2019-01-17T19:14:10.704Z,1.00
2019-01-17T19:19:12.766Z,0.90
2019-01-17T19:24:14.097Z,1.00
2019-01-17T19:29:15.391Z,1.00
2019-01-17T19:34:16.757Z,0.90
2019-01-17T19:39:18.040Z,0.67
2019-01-17T19:44:23.537Z,0.80
2019-01-17T19:49:25.040Z,1.00
2019-01-17T19:54:28.415Z,0.90
2019-01-17T19:59:29.853Z,1.00
2019-01-17T20:04:41.669Z,0.80
2019-01-17T20:09:38.927Z,0.80
2019-01-17T20:14:41.366Z,0.93
2019-01-17T20:19:42.668Z,0.80
2019-01-17T20:24:50.728Z,0.80
2019-01-17T20:29:52.049Z,0.80
2019-01-17T20:34:54.112Z,0.90
2019-01-17T20:40:08.692Z,0.63
2019-01-17T20:45:12.057Z,0.60
2019-01-17T20:50:14.212Z,1.00
2019-01-17T20:55:15.613Z,0.60
2019-01-17T21:05:49.566Z,0.90
2019-01-17T21:11:27.770Z,0.70
2019-01-17T21:16:46.591Z,0.73
2019-01-17T21:21:47.911Z,0.60
2019-01-17T21:26:58.046Z,0.77
2019-01-17T21:32:03.772Z,0.67
2019-01-17T21:37:05.081Z,0.57
2019-01-17T21:42:06.405Z,0.60
2019-01-17T21:47:08.179Z,0.70
2019-01-17T21:52:09.516Z,0.70
2019-01-17T21:57:22.146Z,0.77
2019-01-17T22:02:23.506Z,0.63
2019-01-17T22:07:28.370Z,0.63
2019-01-17T22:12:37.099Z,0.90
2019-01-17T22:17:38.402Z,0.57
2019-01-17T22:22:39.672Z,0.70
2019-01-17T22:27:43.011Z,0.50
2019-01-17T22:32:51.558Z,0.60
2019-01-17T22:38:06.454Z,0.50
2019-01-17T22:43:07.767Z,0.57
2019-01-17T22:48:09.077Z,0.50
2019-01-17T22:53:10.390Z,0.50
2019-01-17T22:58:12.450Z,0.67
2019-01-17T23:34:53.285Z,0.70
2019-01-17T23:39:55.339Z,1.00
2019-01-17T23:44:56.657Z,0.90
2019-01-17T23:49:58.041Z,0.80
2019-01-17T23:54:59.317Z,0.73
